Time;durP1;ratioP1;P1;durP2;ratioP2;P2;SDS_P1;SDS_P2;PMS_P1;PMS_P2;Temp;Humidity;BMP_temperature;BMP_pressure;BME280_temperature;BME280_humidity;BME280_pressure;Samples;Min_cycle;Max_cycle;Signal;HPM_P1;HPM_P2
2022/12/21 00:01:26;;;;;;;9.90;2.80;;;10.10;99.90;;;;;;5058773;28;20537;-58
2022/12/21 00:03:58;;;;;;;5.97;2.15;;;10.20;99.90;;;;;;5061810;28;20396;-59
2022/12/21 00:06:25;;;;;;;7.05;2.13;;;10.30;99.90;;;;;;5043909;28;20476;-58
2022/12/21 00:08:54;;;;;;;6.78;2.20;;;10.30;99.90;;;;;;5061606;28;20837;-58
2022/12/21 00:11:24;;;;;;;6.93;2.10;;;10.40;99.90;;;;;;5063377;28;20745;-59
2022/12/21 00:13:50;;;;;;;7.40;2.33;;;10.40;99.90;;;;;;5060655;28;20450;-59
2022/12/21 00:16:19;;;;;;;7.47;2.50;;;10.40;99.90;;;;;;5062160;28;20388;-58
2022/12/21 00:18:46;;;;;;;6.75;2.50;;;10.40;99.90;;;;;;5061328;28;20415;-58
2022/12/21 00:21:17;;;;;;;8.20;2.40;;;11.10;99.90;;;;;;5061135;28;20951;-58
2022/12/21 00:23:45;;;;;;;7.40;2.58;;;10.30;99.90;;;;;;5061530;28;20429;-58
2022/12/21 00:26:12;;;;;;;5.93;1.98;;;10.40;99.90;;;;;;5061735;28;20410;-58
2022/12/21 00:28:38;;;;;;;9.90;2.73;;;10.30;99.90;;;;;;5059918;28;20414;-58
2022/12/21 00:31:18;;;;;;;8.13;2.30;;;10.30;99.90;;;;;;5062563;28;20422;-58
2022/12/21 00:33:45;;;;;;;8.65;2.30;;;10.40;99.90;;;;;;5061437;28;20441;-58
2022/12/21 00:36:13;;;;;;;6.47;2.10;;;10.40;99.90;;;;;;5061496;28;20751;-58
2022/12/21 00:38:38;;;;;;;7.13;2.70;;;10.40;99.90;;;;;;5059148;28;20407;-58
2022/12/21 00:41:07;;;;;;;7.32;2.40;;;10.30;99.90;;;;;;5043482;28;20873;-57
2022/12/21 00:43:36;;;;;;;6.60;2.40;;;10.30;99.90;;;;;;5060869;28;20449;-57
2022/12/21 00:46:02;;;;;;;6.97;2.25;;;10.20;99.90;;;;;;5060621;28;20434;-59
2022/12/21 00:48:29;;;;;;;6.90;2.28;;;10.20;99.90;;;;;;5062372;28;20423;-58
2022/12/21 00:51:03;;;;;;;6.63;2.30;;;10.20;99.90;;;;;;5061336;28;20376;-58
2022/12/21 00:53:29;;;;;;;8.70;2.40;;;10.20;99.90;;;;;;5060412;28;20840;-58
2022/12/21 00:55:56;;;;;;;8.60;2.35;;;10.20;99.90;;;;;;5059823;28;20396;-57
2022/12/21 00:58:23;;;;;;;6.32;1.83;;;11.10;99.90;;;;;;5061671;28;20473;-57
2022/12/21 01:00:52;;;;;;;6.10;2.10;;;10.30;99.90;;;;;;5059307;28;20385;-58
2022/12/21 01:03:17;;;;;;;7.90;2.30;;;10.40;99.90;;;;;;5062538;28;20380;-58
2022/12/21 01:05:47;;;;;;;7.30;2.40;;;10.50;99.90;;;;;;5059985;28;20871;-58
2022/12/21 01:08:14;;;;;;;6.30;2.10;;;10.50;99.90;;;;;;5062568;28;20472;-59
2022/12/21 01:10:40;;;;;;;6.20;2.10;;;10.50;99.90;;;;;;5059563;28;20468;-58
2022/12/21 01:13:05;;;;;;;9.10;2.60;;;10.60;99.90;;;;;;5062780;28;20487;-58
2022/12/21 01:15:31;;;;;;;10.35;2.70;;;10.50;1.00;;;;;;5057732;28;20400;-57
2022/12/21 01:17:57;;;;;;;8.40;1.90;;;10.50;1.00;;;;;;5061293;28;20880;-58
2022/12/21 01:20:22;;;;;;;7.35;2.20;;;10.50;1.00;;;;;;5042583;28;20392;-57
2022/12/21 01:22:48;;;;;;;7.37;2.23;;;10.50;99.90;;;;;;5060896;28;20389;-58
2022/12/21 01:25:14;;;;;;;7.90;2.40;;;10.50;1.00;;;;;;5042170;28;20467;-60
2022/12/21 01:27:39;;;;;;;9.40;2.20;;;10.60;99.90;;;;;;5061232;28;20429;-59
2022/12/21 01:30:06;;;;;;;7.18;2.00;;;10.60;99.90;;;;;;5059212;28;20916;-59
2022/12/21 01:32:31;;;;;;;7.15;2.25;;;10.60;99.90;;;;;;5061747;28;20396;-59
2022/12/21 01:34:57;;;;;;;8.90;2.20;;;10.50;1.00;;;;;;5059294;28;20388;-59
2022/12/21 01:37:23;;;;;;;6.50;2.05;;;10.50;99.90;;;;;;5059555;28;20485;-59
2022/12/21 01:39:49;;;;;;;7.18;1.80;;;10.60;99.90;;;;;;5056498;28;20475;-60
2022/12/21 01:42:15;;;;;;;6.80;2.10;;;10.60;99.90;;;;;;5060783;28;20796;-59
2022/12/21 01:45:13;;;;;;;6.45;2.00;;;10.60;1.00;;;;;;5056000;28;20535;-59
2022/12/21 01:47:54;;;;;;;6.72;1.98;;;10.60;1.00;;;;;;5061717;28;20403;-59
2022/12/21 01:50:22;;;;;;;7.50;2.10;;;10.70;99.90;;;;;;5061231;28;20827;-59
2022/12/21 01:52:49;;;;;;;7.60;2.00;;;10.70;99.90;;;;;;5062276;28;20400;-58
2022/12/21 01:55:14;;;;;;;6.80;2.08;;;10.70;1.00;;;;;;5058705;28;20377;-58
2022/12/21 01:57:40;;;;;;;6.72;2.10;;;10.70;99.90;;;;;;5059765;28;20762;-58
2022/12/21 02:00:08;;;;;;;9.43;2.00;;;10.80;99.90;;;;;;5058024;28;20421;-59
2022/12/21 02:02:47;;;;;;;6.22;1.90;;;10.80;99.90;;;;;;5059790;28;20393;-58
2022/12/21 02:05:46;;;;;;;6.93;1.80;;;10.80;1.00;;;;;;5059751;28;20869;-59
2022/12/21 02:08:11;;;;;;;7.13;2.38;;;10.90;99.90;;;;;;5047945;28;20406;-58
2022/12/21 02:10:37;;;;;;;6.95;1.95;;;10.90;99.90;;;;;;5044161;28;20453;-59
2022/12/21 02:13:06;;;;;;;7.68;2.03;;;10.90;1.00;;;;;;5060175;28;20394;-59
2022/12/21 02:15:51;;;;;;;6.32;1.75;;;10.80;1.00;;;;;;5060317;28;20478;-59
2022/12/21 02:18:34;;;;;;;6.18;2.47;;;10.80;99.90;;;;;;5059752;28;20726;-59
2022/12/21 02:21:31;;;;;;;8.40;1.92;;;10.70;1.00;;;;;;5064570;28;20786;-59
2022/12/21 02:24:21;;;;;;;6.75;2.30;;;10.60;1.00;;;;;;5059109;28;20392;-59
2022/12/21 02:26:59;;;;;;;6.38;2.30;;;10.50;99.90;;;;;;5059464;28;20488;-58
2022/12/21 02:30:02;;;;;;;7.10;2.30;;;10.50;1.00;;;;;;5058764;28;20898;-59
2022/12/21 02:32:56;;;;;;;7.60;2.30;;;10.40;1.00;;;;;;5043540;28;20427;-58
2022/12/21 02:35:45;;;;;;;6.20;2.17;;;10.40;36.60;;;;;;5060604;28;20491;-58
2022/12/21 02:38:33;;;;;;;7.13;2.20;;;10.50;99.90;;;;;;5059557;28;20860;-59
2022/12/21 02:41:27;;;;;;;6.47;2.20;;;10.50;92.80;;;;;;5060479;28;20396;-58
2022/12/21 02:44:13;;;;;;;6.90;2.20;;;10.40;99.90;;;;;;5041038;28;20419;-58
2022/12/21 02:47:03;;;;;;;8.13;2.40;;;10.90;99.90;;;;;;5061813;28;20397;-58
2022/12/21 02:50:02;;;;;;;7.22;2.45;;;10.40;1.00;;;;;;5059159;28;20405;-58
2022/12/21 02:52:34;;;;;;;7.25;2.50;;;10.40;99.90;;;;;;5054586;28;20416;-59
2022/12/21 02:55:00;;;;;;;6.93;2.42;;;10.50;1.00;;;;;;5060877;28;20395;-59
2022/12/21 02:57:34;;;;;;;7.05;2.42;;;10.50;99.90;;;;;;5041509;28;20415;-59
2022/12/21 03:00:03;;;;;;;6.97;2.20;;;10.40;1.00;;;;;;5057684;28;20430;-59
2022/12/21 03:02:37;;;;;;;6.20;2.05;;;10.30;1.00;;;;;;5058141;28;20462;-59
2022/12/21 03:05:38;;;;;;;7.55;2.35;;;10.30;1.00;;;;;;5060484;28;20383;-59
2022/12/21 03:08:29;;;;;;;6.20;2.30;;;10.30;1.00;;;;;;5062461;28;20405;-58
2022/12/21 03:11:03;;;;;;;6.25;2.20;;;10.30;1.00;;;;;;5059173;28;20383;-58
2022/12/21 03:13:53;;;;;;;7.80;2.10;;;10.30;1.00;;;;;;5061188;28;20418;-58
2022/12/21 03:16:34;;;;;;;7.38;2.33;;;10.30;1.00;;;;;;5061921;28;20400;-59
2022/12/21 03:19:32;;;;;;;6.47;2.28;;;10.20;15.40;;;;;;5060991;28;20436;-58
2022/12/21 03:22:00;;;;;;;8.93;2.38;;;10.20;99.90;;;;;;5056351;28;20388;-58
2022/12/21 03:24:35;;;;;;;6.80;1.90;;;10.20;99.90;;;;;;5058343;28;20492;-58
2022/12/21 03:27:18;;;;;;;7.53;2.33;;;10.20;99.90;;;;;;5057582;28;20867;-59
2022/12/21 03:29:52;;;;;;;6.93;2.08;;;10.30;99.90;;;;;;5060622;28;20951;-59
2022/12/21 03:32:28;;;;;;;7.13;2.00;;;10.40;99.90;;;;;;5057591;28;20487;-58
2022/12/21 03:34:55;;;;;;;7.00;2.20;;;10.40;99.90;;;;;;5060645;28;20430;-58
2022/12/21 03:37:25;;;;;;;6.75;1.90;;;10.50;70.50;;;;;;5063009;28;20432;-58
2022/12/21 03:39:56;;;;;;;9.70;2.03;;;10.60;99.90;;;;;;5046521;28;20431;-58
2022/12/21 03:42:29;;;;;;;6.03;1.90;;;10.50;99.90;;;;;;5062624;28;20460;-58
2022/12/21 03:45:00;;;;;;;5.65;1.80;;;10.40;99.90;;;;;;5062226;28;20502;-58
2022/12/21 03:47:32;;;;;;;8.30;2.38;;;10.40;99.90;;;;;;5062030;28;20440;-59
2022/12/21 03:50:02;;;;;;;7.17;2.13;;;10.40;99.90;;;;;;5061586;28;20479;-58
2022/12/21 03:52:42;;;;;;;6.30;2.00;;;10.30;99.90;;;;;;5060342;28;20373;-58
2022/12/21 03:55:11;;;;;;;7.00;1.88;;;10.30;99.90;;;;;;5063280;28;20393;-58
2022/12/21 03:57:37;;;;;;;6.55;1.63;;;10.30;99.90;;;;;;5060607;28;20407;-59
2022/12/21 04:00:05;;;;;;;6.53;2.30;;;10.30;99.90;;;;;;5062230;28;20407;-58
2022/12/21 04:02:54;;;;;;;6.63;2.10;;;10.30;99.90;;;;;;5050859;28;20406;-59
2022/12/21 04:05:44;;;;;;;7.40;2.25;;;10.30;99.90;;;;;;5051896;28;20385;-58
2022/12/21 04:08:10;;;;;;;5.35;1.75;;;10.30;99.90;;;;;;5055663;28;20859;-58
2022/12/21 04:10:36;;;;;;;7.13;1.92;;;10.30;99.90;;;;;;5068754;28;20402;-56
2022/12/21 04:13:01;;;;;;;10.32;2.00;;;10.30;99.90;;;;;;5068655;28;20399;-58
2022/12/21 04:18:12;;;;;;;7.20;2.10;;;10.30;99.90;;;;;;5065204;28;20709;-57
2022/12/21 04:20:37;;;;;;;10.07;1.90;;;10.40;99.90;;;;;;5060037;28;20473;-58
2022/12/21 04:28:32;;;;;;;5.60;1.60;;;10.20;99.90;;;;;;5068407;28;20429;-58
2022/12/21 04:30:59;;;;;;;5.82;1.80;;;10.20;99.90;;;;;;5069597;28;20674;-58
2022/12/21 04:33:27;;;;;;;7.20;2.08;;;10.30;99.90;;;;;;5070899;28;20441;-58
2022/12/21 04:38:39;;;;;;;6.17;1.90;;;10.40;99.90;;;;;;5070212;28;20628;-58
2022/12/21 04:41:05;;;;;;;6.57;1.83;;;10.40;99.90;;;;;;5071035;28;20648;-58
2022/12/21 04:43:31;;;;;;;7.00;1.73;;;10.50;99.90;;;;;;5069893;28;20892;-57
2022/12/21 04:46:08;;;;;;;5.77;1.87;;;10.50;99.90;;;;;;5070478;28;20756;-57
2022/12/21 04:48:36;;;;;;;7.70;2.30;;;10.60;99.90;;;;;;5069328;28;20514;-58
2022/12/21 04:51:06;;;;;;;5.30;1.50;;;10.60;99.90;;;;;;5071687;28;20458;-58
2022/12/21 04:53:32;;;;;;;5.50;1.70;;;10.60;99.90;;;;;;5069699;28;20398;-58
2022/12/21 04:55:58;;;;;;;5.47;1.70;;;10.60;99.90;;;;;;5067357;28;20876;-58
2022/12/21 04:58:23;;;;;;;6.70;1.90;;;10.60;65.50;;;;;;5064426;28;20406;-57
2022/12/21 05:00:49;;;;;;;5.78;1.50;;;10.60;22.30;;;;;;5058278;28;20443;-58
2022/12/21 05:03:14;;;;;;;5.73;1.70;;;10.60;94.00;;;;;;5060678;28;20409;-57
2022/12/21 05:05:40;;;;;;;5.70;1.77;;;10.60;99.90;;;;;;5059164;28;20372;-58
2022/12/21 05:08:06;;;;;;;5.20;1.70;;;10.70;99.90;;;;;;5069936;28;20465;-57
2022/12/21 05:10:31;;;;;;;7.30;2.10;;;10.70;1.00;;;;;;5069012;28;20391;-58
2022/12/21 05:12:57;;;;;;;6.78;2.15;;;10.80;1.00;;;;;;5070199;28;20946;-58
2022/12/21 05:15:22;;;;;;;5.30;1.57;;;10.80;1.00;;;;;;5070234;28;20926;-58
2022/12/21 05:17:48;;;;;;;6.15;1.90;;;10.80;1.00;;;;;;5069738;28;20416;-58
2022/12/21 05:20:14;;;;;;;5.73;1.57;;;10.90;1.00;;;;;;5070847;28;20391;-58
2022/12/21 05:22:39;;;;;;;5.50;1.80;;;10.90;1.00;;;;;;5069967;28;20487;-58
2022/12/21 05:25:05;;;;;;;6.00;2.20;;;10.80;1.00;;;;;;5070648;28;20844;-58
2022/12/21 05:27:31;;;;;;;6.25;2.00;;;10.90;1.00;;;;;;5070091;28;20441;-58
2022/12/21 05:29:56;;;;;;;7.13;1.67;;;10.80;1.00;;;;;;5070708;28;20462;-58
2022/12/21 05:32:22;;;;;;;6.30;1.97;;;10.80;1.00;;;;;;5069780;28;20418;-57
2022/12/21 05:34:47;;;;;;;5.07;1.60;;;10.80;1.00;;;;;;5070014;28;20761;-57
2022/12/21 05:37:13;;;;;;;6.00;1.80;;;10.80;1.00;;;;;;5070314;28;20423;-58
2022/12/21 05:39:38;;;;;;;7.43;1.90;;;10.80;1.00;;;;;;5069745;28;20407;-57
2022/12/21 05:42:04;;;;;;;7.30;2.10;;;10.80;1.00;;;;;;5070439;28;20387;-57
2022/12/21 05:44:30;;;;;;;5.30;1.70;;;10.80;1.00;;;;;;5069496;28;20419;-58
2022/12/21 05:46:55;;;;;;;7.00;1.40;;;10.80;1.00;;;;;;5070209;28;20411;-58
2022/12/21 05:49:21;;;;;;;6.80;1.60;;;10.80;1.00;;;;;;5070141;28;20764;-57
2022/12/21 05:51:48;;;;;;;5.32;1.70;;;10.80;1.00;;;;;;5069768;28;20403;-58
2022/12/21 05:54:17;;;;;;;5.33;1.93;;;10.90;1.00;;;;;;5069142;28;20406;-58
2022/12/21 05:56:43;;;;;;;5.40;1.80;;;10.90;99.90;;;;;;5069065;28;20396;-58
2022/12/21 05:59:09;;;;;;;5.80;1.70;;;10.80;1.00;;;;;;5070495;28;20403;-59
2022/12/21 06:01:35;;;;;;;8.98;1.83;;;10.70;52.00;;;;;;5069193;28;20868;-58
2022/12/21 06:04:01;;;;;;;6.00;1.75;;;10.80;78.80;;;;;;5070006;28;20397;-60
2022/12/21 06:06:26;;;;;;;5.60;1.80;;;10.80;99.90;;;;;;5069953;28;20860;-57
2022/12/21 06:08:52;;;;;;;9.00;1.80;;;10.70;99.90;;;;;;5069322;28;21225;-57
2022/12/21 06:11:23;;;;;;;7.57;1.80;;;10.80;99.90;;;;;;5069307;28;20399;-57
2022/12/21 06:13:50;;;;;;;5.30;1.52;;;10.70;99.90;;;;;;5069499;28;20400;-57
2022/12/21 06:16:18;;;;;;;7.38;1.70;;;10.80;99.90;;;;;;5069934;28;20387;-57
2022/12/21 06:18:44;;;;;;;8.45;1.55;;;10.80;99.90;;;;;;5069008;28;20416;-57
2022/12/21 06:21:12;;;;;;;8.90;1.60;;;10.80;99.90;;;;;;5070090;28;20380;-57
2022/12/21 06:23:38;;;;;;;8.82;1.50;;;10.80;99.90;;;;;;5069274;28;20421;-57
2022/12/21 06:26:05;;;;;;;12.82;1.70;;;10.70;99.90;;;;;;5069815;28;20380;-57
2022/12/21 06:28:32;;;;;;;5.53;1.30;;;10.70;99.90;;;;;;5069453;28;20391;-57
2022/12/21 06:31:03;;;;;;;7.25;1.60;;;10.80;99.90;;;;;;5069598;28;20396;-57
2022/12/21 06:33:29;;;;;;;5.60;1.58;;;10.80;99.90;;;;;;5068615;28;20420;-57
2022/12/21 06:35:56;;;;;;;7.40;2.00;;;10.80;99.90;;;;;;5069202;28;20423;-57
2022/12/21 06:38:23;;;;;;;7.47;1.60;;;10.80;99.90;;;;;;5069575;28;20462;-55
2022/12/21 06:41:00;;;;;;;7.82;1.90;;;10.80;99.90;;;;;;5069098;28;20419;-58
2022/12/21 06:43:28;;;;;;;7.00;1.73;;;10.80;99.90;;;;;;5068542;28;20410;-58
2022/12/21 06:45:58;;;;;;;7.78;2.05;;;10.80;99.90;;;;;;5069449;28;20396;-58
2022/12/21 06:48:25;;;;;;;10.38;1.80;;;10.80;99.90;;;;;;5069449;28;20380;-57
2022/12/21 06:50:56;;;;;;;7.90;1.80;;;10.80;1.00;;;;;;5068746;28;20391;-58
2022/12/21 06:53:23;;;;;;;7.50;2.00;;;10.80;99.90;;;;;;5069597;28;20850;-61
2022/12/21 06:55:49;;;;;;;5.85;1.77;;;10.80;1.00;;;;;;5068661;28;20472;-57
2022/12/21 06:58:15;;;;;;;7.40;1.90;;;10.70;1.00;;;;;;5069835;28;20408;-67
2022/12/21 07:00:40;;;;;;;7.57;1.90;;;10.80;1.00;;;;;;5069384;28;20406;-57
2022/12/21 07:03:06;;;;;;;5.20;1.60;;;10.80;1.00;;;;;;5069942;28;20387;-57
2022/12/21 07:05:32;;;;;;;7.63;1.90;;;10.80;1.00;;;;;;5060718;28;20910;-58
2022/12/21 07:07:57;;;;;;;6.85;1.40;;;10.70;1.00;;;;;;5061227;28;20841;-58
2022/12/21 07:10:23;;;;;;;5.77;1.60;;;10.70;1.00;;;;;;5071619;28;20407;-57
2022/12/21 07:12:49;;;;;;;6.13;1.50;;;10.70;1.00;;;;;;5072794;28;20375;-57
2022/12/21 07:15:14;;;;;;;7.03;1.73;;;10.70;1.00;;;;;;5073340;28;20395;-58
2022/12/21 07:17:40;;;;;;;7.85;2.20;;;10.70;1.00;;;;;;5073200;28;20415;-58
2022/12/21 07:20:06;;;;;;;7.93;1.63;;;10.80;1.00;;;;;;5073143;28;20379;-57
2022/12/21 07:22:32;;;;;;;7.75;1.90;;;10.80;1.00;;;;;;5073218;28;20453;-58
2022/12/21 07:24:58;;;;;;;6.50;1.88;;;10.70;1.00;;;;;;5072837;28;20388;-58
2022/12/21 07:27:23;;;;;;;8.57;2.00;;;10.70;1.00;;;;;;5073030;28;20391;-57
2022/12/21 07:29:49;;;;;;;8.20;1.93;;;10.70;1.00;;;;;;5072036;28;20634;-58
2022/12/21 07:32:14;;;;;;;6.22;1.60;;;10.70;1.00;;;;;;5072784;28;20395;-58
2022/12/21 07:34:40;;;;;;;6.93;1.90;;;10.70;1.00;;;;;;5071629;28;20465;-58
2022/12/21 07:37:06;;;;;;;5.25;1.30;;;10.70;1.00;;;;;;5072808;28;20878;-58
2022/12/21 07:39:31;;;;;;;7.00;1.87;;;10.70;1.00;;;;;;5072319;28;20410;-58
2022/12/21 07:41:57;;;;;;;5.20;1.40;;;10.70;1.00;;;;;;5073049;28;20817;-57
2022/12/21 07:44:23;;;;;;;6.57;1.90;;;10.60;1.00;;;;;;5071967;28;20499;-57
2022/12/21 07:46:51;;;;;;;8.82;1.67;;;10.60;1.00;;;;;;5071625;28;20907;-57
2022/12/21 07:49:16;;;;;;;7.60;1.90;;;10.50;1.00;;;;;;5072150;28;20406;-58
2022/12/21 07:51:42;;;;;;;8.27;1.90;;;10.60;1.00;;;;;;5071682;28;20383;-58
2022/12/21 07:54:08;;;;;;;5.83;1.90;;;10.60;1.00;;;;;;5072296;28;20383;-57
2022/12/21 07:56:33;;;;;;;6.30;1.90;;;10.60;1.00;;;;;;5071291;28;20407;-58
2022/12/21 07:59:00;;;;;;;7.73;2.30;;;10.60;1.00;;;;;;5072743;28;20783;-57
2022/12/21 08:01:26;;;;;;;7.47;2.17;;;10.60;1.00;;;;;;5071486;28;20384;-57
2022/12/21 08:03:53;;;;;;;7.10;2.10;;;10.50;1.00;;;;;;5071165;28;20454;-58
2022/12/21 08:06:18;;;;;;;6.75;1.60;;;10.60;1.00;;;;;;5071292;28;20413;-58
2022/12/21 08:08:44;;;;;;;6.50;1.90;;;10.50;1.00;;;;;;5071845;28;20391;-58
2022/12/21 08:11:13;;;;;;;8.50;2.28;;;10.50;1.00;;;;;;5071813;28;20403;-58
2022/12/21 08:13:41;;;;;;;7.25;1.50;;;10.50;1.00;;;;;;5070908;28;20486;-58
2022/12/21 08:16:09;;;;;;;7.68;1.88;;;10.50;1.00;;;;;;5071857;28;20391;-58
2022/12/21 08:18:35;;;;;;;6.60;1.73;;;10.40;1.00;;;;;;5071381;28;20963;-58
2022/12/21 08:21:04;;;;;;;5.20;1.53;;;10.40;1.00;;;;;;5070215;28;20396;-57
2022/12/21 08:23:29;;;;;;;7.50;2.00;;;10.40;1.00;;;;;;5071258;28;20823;-57
2022/12/21 08:26:01;;;;;;;9.00;1.30;;;10.40;1.00;;;;;;5071274;28;20464;-57
2022/12/21 08:28:27;;;;;;;8.65;2.60;;;10.40;1.00;;;;;;5071563;28;20413;-57
2022/12/21 08:30:59;;;;;;;11.13;1.80;;;10.40;1.00;;;;;;5070837;28;20455;-57
2022/12/21 08:33:24;;;;;;;5.90;1.80;;;10.50;1.00;;;;;;5070782;28;20881;-57
2022/12/21 08:35:50;;;;;;;7.50;1.60;;;10.50;1.00;;;;;;5070823;28;20375;-57
2022/12/21 08:38:15;;;;;;;7.70;1.80;;;10.50;1.00;;;;;;5071014;28;20730;-57
2022/12/21 08:40:41;;;;;;;6.30;1.50;;;10.60;1.00;;;;;;5070344;28;20384;-57
